Howe, IN (46746)

6:19 AM EDT on August 22, 2017 (GMT -0400)
Scott | | Change Station

Elev 892 ft 41.74 °N, 85.54 °W | Updated 19 seconds ago

Rain
Rain
69.3 °F
Feels Like 69.3 °F
N
6.0
Wind Variable Wind from West

Today
High -- | Low -- °F
--% Chance of Precip.
Yesterday
High -- | Low -- °F
Precip. -- in
Pressure 29.88 in
Visibility 10.0 miles
Clouds Scattered Clouds 4700 ft
Mostly Cloudy 7500 ft
Overcast 11000 ft
Dew Point 66 °F
Humidity 90%
Rainfall 0.00 in
Snow Depth Not available.
6:57 AM 8:30 PM
New Moon, 1% visible
METAR KIRS 221015Z AUTO 24011KT 10SM RA SCT047 BKN075 OVC110 21/19 A2988 RMK AO2 T02060187
Pressure 29.88 in
Visibility 10.0 miles
Clouds Scattered Clouds 4700 ft
Mostly Cloudy 7500 ft
Overcast 11000 ft
Dew Point 66 °F
Humidity 90%
Rainfall 0.00 in
Snow Depth Not available.
6:57 AM 8:30 PM
New Moon, 1% visible
METAR KIRS 221015Z AUTO 24011KT 10SM RA SCT047 BKN075 OVC110 21/19 A2988 RMK AO2 T02060187

Get Severe Weather Alerts

Thanks for signing up!

Be on the lookout for a verification email in your inbox.

You'll start receiving the daily forecast at 6 AM.

×

10-Day Weather Forecast

Almanac

Astronomy

Aug. 22, 2017 Rise Set
Actual Time
Civil Twilight
Nautical Twilight
Astronomical Twilight
Moon
Length of Visible Light
Length of Day
Tomorrow will be .
, % of the Moon is Illuminated

Today's Extremes

State Highs State Lows

Community

WunderPhotos

Category 6

Welcome to Category 6. This is the collective home for Weather Underground's featured writeups by Dr. Jeff Masters (right), Bob Henson (left), Chris Burt, and other regular contributors.

Nearby

Air Quality

  Air Quality AQ Index Pollutant
Not available.

Snow Depth

Station Depth Elevation

Earthquake Activity

City Distance Mag. Time & Date
Minimum magnitude displayed is 2.5.

Coastal Water Temperatures

Place Temperature

Stations

Nearby Weather Stations

Station Location Temp. Windchill Dew Point Humidity Wind Precip. Elev Updated Type
                   

Watches & Warnings

There are currently no watches in effect.